sensor_id;sensor_type;location;lat;lon;timestamp;temperature;humidity
18597;DHT22;9428;50.950;6.912;2023-04-21T00:00:25;8.40;99.90
18597;DHT22;9428;50.950;6.912;2023-04-21T00:03:13;8.40;99.90
18597;DHT22;9428;50.950;6.912;2023-04-21T00:06:00;8.50;99.90
18597;DHT22;9428;50.950;6.912;2023-04-21T00:08:48;8.60;99.90
18597;DHT22;9428;50.950;6.912;2023-04-21T00:11:35;8.50;99.90
18597;DHT22;9428;50.950;6.912;2023-04-21T00:14:22;8.50;99.90
18597;DHT22;9428;50.950;6.912;2023-04-21T00:17:09;8.60;99.90
18597;DHT22;9428;50.950;6.912;2023-04-21T00:19:58;9.20;99.90
18597;DHT22;9428;50.950;6.912;2023-04-21T00:22:45;8.60;99.90
18597;DHT22;9428;50.950;6.912;2023-04-21T00:25:33;9.10;99.90
18597;DHT22;9428;50.950;6.912;2023-04-21T00:28:20;8.60;99.90
18597;DHT22;9428;50.950;6.912;2023-04-21T00:31:08;8.60;99.90
18597;DHT22;9428;50.950;6.912;2023-04-21T00:33:55;8.60;99.90
18597;DHT22;9428;50.950;6.912;2023-04-21T00:36:44;9.30;99.90
18597;DHT22;9428;50.950;6.912;2023-04-21T00:39:31;8.50;99.90
18597;DHT22;9428;50.950;6.912;2023-04-21T00:42:18;8.80;99.90
18597;DHT22;9428;50.950;6.912;2023-04-21T00:45:06;8.70;99.90
18597;DHT22;9428;50.950;6.912;2023-04-21T00:47:54;8.60;99.90
18597;DHT22;9428;50.950;6.912;2023-04-21T00:50:41;8.80;99.90
18597;DHT22;9428;50.950;6.912;2023-04-21T00:53:30;8.80;99.90
18597;DHT22;9428;50.950;6.912;2023-04-21T00:56:18;8.70;99.90
18597;DHT22;9428;50.950;6.912;2023-04-21T00:59:06;8.60;99.90
18597;DHT22;9428;50.950;6.912;2023-04-21T01:01:53;8.50;99.90
18597;DHT22;9428;50.950;6.912;2023-04-21T01:04:41;8.70;99.90
18597;DHT22;9428;50.950;6.912;2023-04-21T01:07:28;8.90;99.90
18597;DHT22;9428;50.950;6.912;2023-04-21T01:10:17;8.40;99.90
18597;DHT22;9428;50.950;6.912;2023-04-21T01:13:04;8.60;99.90
18597;DHT22;9428;50.950;6.912;2023-04-21T01:15:51;9.30;99.90
18597;DHT22;9428;50.950;6.912;2023-04-21T01:18:39;8.90;99.90
18597;DHT22;9428;50.950;6.912;2023-04-21T01:21:26;8.80;99.90
18597;DHT22;9428;50.950;6.912;2023-04-21T01:24:18;8.70;99.90
18597;DHT22;9428;50.950;6.912;2023-04-21T01:27:08;8.60;99.90
18597;DHT22;9428;50.950;6.912;2023-04-21T01:29:56;8.80;99.90
18597;DHT22;9428;50.950;6.912;2023-04-21T01:32:44;8.80;99.90
18597;DHT22;9428;50.950;6.912;2023-04-21T01:35:31;9.00;99.90
18597;DHT22;9428;50.950;6.912;2023-04-21T01:38:18;8.80;99.90
18597;DHT22;9428;50.950;6.912;2023-04-21T01:41:08;9.30;99.90
18597;DHT22;9428;50.950;6.912;2023-04-21T01:43:55;9.00;99.90
18597;DHT22;9428;50.950;6.912;2023-04-21T01:46:42;9.00;99.90
18597;DHT22;9428;50.950;6.912;2023-04-21T01:49:30;9.00;99.90
18597;DHT22;9428;50.950;6.912;2023-04-21T01:52:17;9.00;99.90
18597;DHT22;9428;50.950;6.912;2023-04-21T01:55:05;9.00;99.90
18597;DHT22;9428;50.950;6.912;2023-04-21T01:57:54;9.00;99.90
18597;DHT22;9428;50.950;6.912;2023-04-21T02:00:42;9.30;99.90
18597;DHT22;9428;50.950;6.912;2023-04-21T02:03:29;9.10;99.90
18597;DHT22;9428;50.950;6.912;2023-04-21T02:06:16;8.90;99.90
18597;DHT22;9428;50.950;6.912;2023-04-21T02:09:04;9.00;99.90
18597;DHT22;9428;50.950;6.912;2023-04-21T02:11:51;9.00;99.90
18597;DHT22;9428;50.950;6.912;2023-04-21T02:14:40;9.00;99.90
18597;DHT22;9428;50.950;6.912;2023-04-21T02:17:27;9.60;99.90
18597;DHT22;9428;50.950;6.912;2023-04-21T02:20:14;8.90;99.90
18597;DHT22;9428;50.950;6.912;2023-04-21T02:23:01;9.80;99.90
18597;DHT22;9428;50.950;6.912;2023-04-21T02:25:49;9.00;99.90
18597;DHT22;9428;50.950;6.912;2023-04-21T02:28:36;9.00;99.90
18597;DHT22;9428;50.950;6.912;2023-04-21T02:31:24;9.10;99.90
18597;DHT22;9428;50.950;6.912;2023-04-21T02:34:12;8.90;99.90
18597;DHT22;9428;50.950;6.912;2023-04-21T02:36:59;8.90;99.90
18597;DHT22;9428;50.950;6.912;2023-04-21T02:39:46;9.00;99.90
18597;DHT22;9428;50.950;6.912;2023-04-21T02:42:33;8.80;99.90
18597;DHT22;9428;50.950;6.912;2023-04-21T02:45:20;9.00;99.90
18597;DHT22;9428;50.950;6.912;2023-04-21T02:48:09;9.00;99.90
18597;DHT22;9428;50.950;6.912;2023-04-21T02:50:56;9.00;99.90
18597;DHT22;9428;50.950;6.912;2023-04-21T02:53:43;9.00;99.90
18597;DHT22;9428;50.950;6.912;2023-04-21T02:56:30;9.10;99.90
18597;DHT22;9428;50.950;6.912;2023-04-21T02:59:19;9.00;99.90
18597;DHT22;9428;50.950;6.912;2023-04-21T03:02:06;9.60;99.90
18597;DHT22;9428;50.950;6.912;2023-04-21T03:04:56;9.00;99.90
18597;DHT22;9428;50.950;6.912;2023-04-21T03:07:44;8.90;99.90
18597;DHT22;9428;50.950;6.912;2023-04-21T03:10:31;9.30;99.90
18597;DHT22;9428;50.950;6.912;2023-04-21T03:13:18;9.00;99.90
18597;DHT22;9428;50.950;6.912;2023-04-21T03:16:05;9.00;99.90
18597;DHT22;9428;50.950;6.912;2023-04-21T03:18:53;8.90;99.90
18597;DHT22;9428;50.950;6.912;2023-04-21T03:21:41;8.90;99.90
18597;DHT22;9428;50.950;6.912;2023-04-21T03:24:29;8.90;99.90
18597;DHT22;9428;50.950;6.912;2023-04-21T03:27:16;9.50;99.90
18597;DHT22;9428;50.950;6.912;2023-04-21T03:30:04;8.80;99.90
18597;DHT22;9428;50.950;6.912;2023-04-21T03:32:51;8.70;99.90
18597;DHT22;9428;50.950;6.912;2023-04-21T03:35:40;8.80;99.90
18597;DHT22;9428;50.950;6.912;2023-04-21T03:38:29;8.80;99.90
18597;DHT22;9428;50.950;6.912;2023-04-21T03:41:16;8.80;99.90
18597;DHT22;9428;50.950;6.912;2023-04-21T03:44:04;8.80;99.90
18597;DHT22;9428;50.950;6.912;2023-04-21T03:46:51;8.60;99.90
18597;DHT22;9428;50.950;6.912;2023-04-21T03:49:39;8.80;99.90
18597;DHT22;9428;50.950;6.912;2023-04-21T03:52:26;9.30;99.90
18597;DHT22;9428;50.950;6.912;2023-04-21T03:55:14;8.70;99.90
18597;DHT22;9428;50.950;6.912;2023-04-21T03:58:02;8.70;99.90
18597;DHT22;9428;50.950;6.912;2023-04-21T04:00:49;8.70;99.90
18597;DHT22;9428;50.950;6.912;2023-04-21T04:03:36;9.00;99.90
18597;DHT22;9428;50.950;6.912;2023-04-21T04:06:23;8.60;99.90
18597;DHT22;9428;50.950;6.912;2023-04-21T04:09:11;8.70;99.90
18597;DHT22;9428;50.950;6.912;2023-04-21T04:11:59;8.70;99.90
18597;DHT22;9428;50.950;6.912;2023-04-21T04:14:48;9.50;99.90
18597;DHT22;9428;50.950;6.912;2023-04-21T04:17:35;9.00;99.90
18597;DHT22;9428;50.950;6.912;2023-04-21T04:20:22;8.70;99.90
18597;DHT22;9428;50.950;6.912;2023-04-21T04:23:10;8.60;99.90
18597;DHT22;9428;50.950;6.912;2023-04-21T04:25:57;9.00;99.90
18597;DHT22;9428;50.950;6.912;2023-04-21T04:28:45;8.70;99.90
18597;DHT22;9428;50.950;6.912;2023-04-21T04:31:33;8.70;99.90
18597;DHT22;9428;50.950;6.912;2023-04-21T04:34:20;8.70;99.90
18597;DHT22;9428;50.950;6.912;2023-04-21T04:37:09;8.70;99.90
18597;DHT22;9428;50.950;6.912;2023-04-21T04:39:57;8.70;99.90
18597;DHT22;9428;50.950;6.912;2023-04-21T04:42:45;8.70;99.90
18597;DHT22;9428;50.950;6.912;2023-04-21T04:45:35;8.70;99.90
18597;DHT22;9428;50.950;6.912;2023-04-21T04:48:22;8.70;99.90
18597;DHT22;9428;50.950;6.912;2023-04-21T04:51:10;8.70;99.90
18597;DHT22;9428;50.950;6.912;2023-04-21T04:53:57;9.30;99.90
18597;DHT22;9428;50.950;6.912;2023-04-21T04:56:44;8.70;99.90
18597;DHT22;9428;50.950;6.912;2023-04-21T04:59:32;8.60;99.90
18597;DHT22;9428;50.950;6.912;2023-04-21T05:02:20;8.70;99.90
18597;DHT22;9428;50.950;6.912;2023-04-21T05:05:08;8.80;99.90
18597;DHT22;9428;50.950;6.912;2023-04-21T05:07:56;8.70;99.90
18597;DHT22;9428;50.950;6.912;2023-04-21T05:10:43;8.80;99.90
18597;DHT22;9428;50.950;6.912;2023-04-21T05:13:30;8.80;99.90
18597;DHT22;9428;50.950;6.912;2023-04-21T05:16:17;8.90;99.90
18597;DHT22;9428;50.950;6.912;2023-04-21T05:19:06;8.90;99.90
18597;DHT22;9428;50.950;6.912;2023-04-21T05:21:57;8.90;99.90
18597;DHT22;9428;50.950;6.912;2023-04-21T05:24:45;8.90;99.90
18597;DHT22;9428;50.950;6.912;2023-04-21T05:27:33;9.00;99.90
18597;DHT22;9428;50.950;6.912;2023-04-21T05:30:20;8.80;99.90
18597;DHT22;9428;50.950;6.912;2023-04-21T05:33:07;8.80;99.90
18597;DHT22;9428;50.950;6.912;2023-04-21T05:35:56;8.80;99.90
18597;DHT22;9428;50.950;6.912;2023-04-21T05:38:43;8.90;99.90
18597;DHT22;9428;50.950;6.912;2023-04-21T05:41:31;8.80;99.90
18597;DHT22;9428;50.950;6.912;2023-04-21T05:44:18;8.80;99.90
18597;DHT22;9428;50.950;6.912;2023-04-21T05:47:05;8.80;99.90
18597;DHT22;9428;50.950;6.912;2023-04-21T05:49:52;8.90;99.90
18597;DHT22;9428;50.950;6.912;2023-04-21T05:52:41;8.90;99.90
18597;DHT22;9428;50.950;6.912;2023-04-21T05:55:29;8.70;99.90
18597;DHT22;9428;50.950;6.912;2023-04-21T05:58:16;8.70;99.90
18597;DHT22;9428;50.950;6.912;2023-04-21T06:01:03;8.80;99.90
18597;DHT22;9428;50.950;6.912;2023-04-21T06:03:52;8.80;99.90
18597;DHT22;9428;50.950;6.912;2023-04-21T06:06:39;8.80;99.90
18597;DHT22;9428;50.950;6.912;2023-04-21T06:09:28;8.90;99.90
18597;DHT22;9428;50.950;6.912;2023-04-21T06:12:15;8.90;99.90
18597;DHT22;9428;50.950;6.912;2023-04-21T06:15:03;9.00;99.90
18597;DHT22;9428;50.950;6.912;2023-04-21T06:17:52;9.00;99.90
18597;DHT22;9428;50.950;6.912;2023-04-21T06:20:39;9.70;99.90
18597;DHT22;9428;50.950;6.912;2023-04-21T06:23:27;9.10;99.90
18597;DHT22;9428;50.950;6.912;2023-04-21T06:26:15;9.10;99.90
18597;DHT22;9428;50.950;6.912;2023-04-21T06:29:02;9.20;99.90
18597;DHT22;9428;50.950;6.912;2023-04-21T06:31:50;9.20;99.90
18597;DHT22;9428;50.950;6.912;2023-04-21T06:34:37;9.20;99.90
18597;DHT22;9428;50.950;6.912;2023-04-21T06:37:25;9.20;99.90
18597;DHT22;9428;50.950;6.912;2023-04-21T06:40:12;10.10;99.90
18597;DHT22;9428;50.950;6.912;2023-04-21T06:43:02;9.40;99.90
18597;DHT22;9428;50.950;6.912;2023-04-21T06:45:49;9.40;99.90
18597;DHT22;9428;50.950;6.912;2023-04-21T06:48:36;9.60;99.90
18597;DHT22;9428;50.950;6.912;2023-04-21T06:51:23;9.40;99.90
18597;DHT22;9428;50.950;6.912;2023-04-21T06:54:10;9.40;99.90
18597;DHT22;9428;50.950;6.912;2023-04-21T06:56:58;9.50;99.90
18597;DHT22;9428;50.950;6.912;2023-04-21T06:59:46;9.40;99.90
18597;DHT22;9428;50.950;6.912;2023-04-21T07:02:33;9.50;99.90
18597;DHT22;9428;50.950;6.912;2023-04-21T07:05:21;9.50;99.90
18597;DHT22;9428;50.950;6.912;2023-04-21T07:08:08;9.50;99.90
18597;DHT22;9428;50.950;6.912;2023-04-21T07:10:55;9.50;99.90
18597;DHT22;9428;50.950;6.912;2023-04-21T07:13:42;9.60;99.90
18597;DHT22;9428;50.950;6.912;2023-04-21T07:16:31;10.30;99.90
18597;DHT22;9428;50.950;6.912;2023-04-21T07:19:18;9.70;99.90
18597;DHT22;9428;50.950;6.912;2023-04-21T07:22:05;9.70;99.90
18597;DHT22;9428;50.950;6.912;2023-04-21T07:24:53;10.60;99.90
18597;DHT22;9428;50.950;6.912;2023-04-21T07:27:40;9.90;99.90
18597;DHT22;9428;50.950;6.912;2023-04-21T07:30:27;9.80;99.90
18597;DHT22;9428;50.950;6.912;2023-04-21T07:33:16;10.20;99.90
18597;DHT22;9428;50.950;6.912;2023-04-21T07:36:03;10.30;99.90
18597;DHT22;9428;50.950;6.912;2023-04-21T07:38:51;9.90;99.90
18597;DHT22;9428;50.950;6.912;2023-04-21T07:41:38;10.00;99.90
18597;DHT22;9428;50.950;6.912;2023-04-21T07:44:25;10.10;99.90
18597;DHT22;9428;50.950;6.912;2023-04-21T07:47:14;10.20;99.90
18597;DHT22;9428;50.950;6.912;2023-04-21T07:50:03;10.20;99.90
18597;DHT22;9428;50.950;6.912;2023-04-21T07:52:50;10.40;99.90
18597;DHT22;9428;50.950;6.912;2023-04-21T07:55:37;10.40;99.90
18597;DHT22;9428;50.950;6.912;2023-04-21T07:58:25;10.40;99.90
18597;DHT22;9428;50.950;6.912;2023-04-21T08:01:12;10.50;99.90
18597;DHT22;9428;50.950;6.912;2023-04-21T08:03:59;10.50;99.90
18597;DHT22;9428;50.950;6.912;2023-04-21T08:06:48;10.50;99.90
18597;DHT22;9428;50.950;6.912;2023-04-21T08:09:35;10.60;99.90
18597;DHT22;9428;50.950;6.912;2023-04-21T08:12:22;11.10;99.90
18597;DHT22;9428;50.950;6.912;2023-04-21T08:15:10;10.80;99.90
18597;DHT22;9428;50.950;6.912;2023-04-21T08:17:57;10.80;99.90
18597;DHT22;9428;50.950;6.912;2023-04-21T08:20:44;10.90;99.90
18597;DHT22;9428;50.950;6.912;2023-04-21T08:23:34;10.90;99.90
18597;DHT22;9428;50.950;6.912;2023-04-21T08:26:21;10.90;99.90
18597;DHT22;9428;50.950;6.912;2023-04-21T08:29:10;11.20;99.90
18597;DHT22;9428;50.950;6.912;2023-04-21T08:31:58;11.10;99.90
18597;DHT22;9428;50.950;6.912;2023-04-21T08:34:45;11.40;99.90
18597;DHT22;9428;50.950;6.912;2023-04-21T08:37:35;11.10;99.90
18597;DHT22;9428;50.950;6.912;2023-04-21T08:40:31;11.10;99.90
18597;DHT22;9428;50.950;6.912;2023-04-21T08:43:19;11.20;99.90
18597;DHT22;9428;50.950;6.912;2023-04-21T08:46:07;11.70;99.90
18597;DHT22;9428;50.950;6.912;2023-04-21T08:48:57;11.10;99.90
18597;DHT22;9428;50.950;6.912;2023-04-21T08:51:45;11.20;99.90
18597;DHT22;9428;50.950;6.912;2023-04-21T08:54:32;11.20;99.90
18597;DHT22;9428;50.950;6.912;2023-04-21T08:57:22;11.30;99.90
18597;DHT22;9428;50.950;6.912;2023-04-21T09:00:10;11.50;99.90
18597;DHT22;9428;50.950;6.912;2023-04-21T09:02:59;11.60;99.90
18597;DHT22;9428;50.950;6.912;2023-04-21T09:05:56;11.80;99.90
18597;DHT22;9428;50.950;6.912;2023-04-21T09:08:52;11.50;99.90
18597;DHT22;9428;50.950;6.912;2023-04-21T09:11:40;12.30;99.90
18597;DHT22;9428;50.950;6.912;2023-04-21T09:14:32;11.80;99.90
18597;DHT22;9428;50.950;6.912;2023-04-21T09:17:21;11.90;99.90
18597;DHT22;9428;50.950;6.912;2023-04-21T09:20:13;12.10;99.90
18597;DHT22;9428;50.950;6.912;2023-04-21T09:23:03;12.10;99.90
18597;DHT22;9428;50.950;6.912;2023-04-21T09:25:51;12.00;99.90
18597;DHT22;9428;50.950;6.912;2023-04-21T09:28:40;12.00;99.90
18597;DHT22;9428;50.950;6.912;2023-04-21T09:31:34;12.50;99.90
18597;DHT22;9428;50.950;6.912;2023-04-21T09:34:22;12.10;99.90
18597;DHT22;9428;50.950;6.912;2023-04-21T09:37:11;12.20;99.90
18597;DHT22;9428;50.950;6.912;2023-04-21T09:39:59;12.30;99.90
18597;DHT22;9428;50.950;6.912;2023-04-21T09:42:46;12.50;99.90
18597;DHT22;9428;50.950;6.912;2023-04-21T09:45:35;13.10;99.90
18597;DHT22;9428;50.950;6.912;2023-04-21T09:48:26;12.70;99.90
18597;DHT22;9428;50.950;6.912;2023-04-21T09:51:15;12.80;99.90
18597;DHT22;9428;50.950;6.912;2023-04-21T09:54:10;12.80;99.90
18597;DHT22;9428;50.950;6.912;2023-04-21T09:56:59;12.60;99.90
18597;DHT22;9428;50.950;6.912;2023-04-21T09:59:59;12.80;99.90
18597;DHT22;9428;50.950;6.912;2023-04-21T10:02:47;12.70;99.90
18597;DHT22;9428;50.950;6.912;2023-04-21T10:05:37;12.70;99.90
18597;DHT22;9428;50.950;6.912;2023-04-21T10:08:26;13.00;99.90
18597;DHT22;9428;50.950;6.912;2023-04-21T10:11:14;13.20;99.90
18597;DHT22;9428;50.950;6.912;2023-04-21T10:14:02;13.50;99.90
18597;DHT22;9428;50.950;6.912;2023-04-21T10:16:55;13.20;99.90
18597;DHT22;9428;50.950;6.912;2023-04-21T10:19:52;13.40;99.90
18597;DHT22;9428;50.950;6.912;2023-04-21T10:22:43;13.60;99.90
18597;DHT22;9428;50.950;6.912;2023-04-21T10:25:31;13.40;99.90
18597;DHT22;9428;50.950;6.912;2023-04-21T10:28:18;13.30;99.90
18597;DHT22;9428;50.950;6.912;2023-04-21T10:31:16;13.40;99.90
18597;DHT22;9428;50.950;6.912;2023-04-21T10:34:29;13.60;99.90
18597;DHT22;9428;50.950;6.912;2023-04-21T10:37:16;13.50;99.90
18597;DHT22;9428;50.950;6.912;2023-04-21T10:40:07;14.00;99.90
18597;DHT22;9428;50.950;6.912;2023-04-21T10:43:41;13.60;99.90
18597;DHT22;9428;50.950;6.912;2023-04-21T10:46:32;13.40;99.90
18597;DHT22;9428;50.950;6.912;2023-04-21T10:49:23;13.60;99.90
18597;DHT22;9428;50.950;6.912;2023-04-21T10:52:11;13.60;99.90
18597;DHT22;9428;50.950;6.912;2023-04-21T10:55:07;13.60;99.90
18597;DHT22;9428;50.950;6.912;2023-04-21T10:58:01;13.80;99.90
18597;DHT22;9428;50.950;6.912;2023-04-21T11:00:53;14.60;99.90
18597;DHT22;9428;50.950;6.912;2023-04-21T11:03:40;13.90;99.90
18597;DHT22;9428;50.950;6.912;2023-04-21T11:06:28;13.90;99.90
18597;DHT22;9428;50.950;6.912;2023-04-21T11:09:15;14.40;99.90
18597;DHT22;9428;50.950;6.912;2023-04-21T11:12:05;14.00;99.90
18597;DHT22;9428;50.950;6.912;2023-04-21T11:14:53;14.10;99.90
18597;DHT22;9428;50.950;6.912;2023-04-21T11:17:40;13.90;99.90
18597;DHT22;9428;50.950;6.912;2023-04-21T11:20:32;14.00;99.90
18597;DHT22;9428;50.950;6.912;2023-04-21T11:23:19;14.20;99.90
18597;DHT22;9428;50.950;6.912;2023-04-21T11:26:06;14.40;99.90
18597;DHT22;9428;50.950;6.912;2023-04-21T11:28:54;14.30;99.90
18597;DHT22;9428;50.950;6.912;2023-04-21T11:31:43;14.60;99.90
18597;DHT22;9428;50.950;6.912;2023-04-21T11:34:32;14.50;99.90
18597;DHT22;9428;50.950;6.912;2023-04-21T11:37:23;14.70;99.90
18597;DHT22;9428;50.950;6.912;2023-04-21T11:40:11;15.20;99.90
18597;DHT22;9428;50.950;6.912;2023-04-21T11:42:59;15.00;99.90
18597;DHT22;9428;50.950;6.912;2023-04-21T11:45:49;15.10;99.90
18597;DHT22;9428;50.950;6.912;2023-04-21T11:48:36;15.00;99.90
18597;DHT22;9428;50.950;6.912;2023-04-21T11:51:23;15.10;99.90
18597;DHT22;9428;50.950;6.912;2023-04-21T11:54:13;15.20;99.90
18597;DHT22;9428;50.950;6.912;2023-04-21T11:57:01;14.90;99.90
18597;DHT22;9428;50.950;6.912;2023-04-21T11:59:49;15.10;99.90
18597;DHT22;9428;50.950;6.912;2023-04-21T12:02:37;15.10;99.90
18597;DHT22;9428;50.950;6.912;2023-04-21T12:05:24;15.00;99.90
18597;DHT22;9428;50.950;6.912;2023-04-21T12:08:20;15.10;99.90
18597;DHT22;9428;50.950;6.912;2023-04-21T12:11:07;14.90;99.90
18597;DHT22;9428;50.950;6.912;2023-04-21T12:13:56;15.10;99.90
18597;DHT22;9428;50.950;6.912;2023-04-21T12:16:43;15.00;99.90
18597;DHT22;9428;50.950;6.912;2023-04-21T12:19:36;15.00;99.90
18597;DHT22;9428;50.950;6.912;2023-04-21T12:22:24;15.00;99.90
18597;DHT22;9428;50.950;6.912;2023-04-21T12:25:11;15.20;99.90
18597;DHT22;9428;50.950;6.912;2023-04-21T12:27:59;15.70;99.90
18597;DHT22;9428;50.950;6.912;2023-04-21T12:30:46;15.50;99.90
18597;DHT22;9428;50.950;6.912;2023-04-21T12:33:33;15.60;99.90
18597;DHT22;9428;50.950;6.912;2023-04-21T12:36:22;15.50;99.90
18597;DHT22;9428;50.950;6.912;2023-04-21T12:39:09;15.80;99.90
18597;DHT22;9428;50.950;6.912;2023-04-21T12:41:56;15.90;99.90
18597;DHT22;9428;50.950;6.912;2023-04-21T12:44:43;16.10;99.90
18597;DHT22;9428;50.950;6.912;2023-04-21T12:47:31;16.10;99.90
18597;DHT22;9428;50.950;6.912;2023-04-21T12:50:18;15.90;99.90
18597;DHT22;9428;50.950;6.912;2023-04-21T12:53:07;16.00;99.90
18597;DHT22;9428;50.950;6.912;2023-04-21T12:55:54;16.10;99.90
18597;DHT22;9428;50.950;6.912;2023-04-21T12:58:41;16.00;99.90
18597;DHT22;9428;50.950;6.912;2023-04-21T13:01:28;16.10;99.90
18597;DHT22;9428;50.950;6.912;2023-04-21T13:04:15;15.90;99.90
18597;DHT22;9428;50.950;6.912;2023-04-21T13:07:03;16.20;99.90
18597;DHT22;9428;50.950;6.912;2023-04-21T13:09:51;15.90;99.90
18597;DHT22;9428;50.950;6.912;2023-04-21T13:12:39;15.80;99.90
18597;DHT22;9428;50.950;6.912;2023-04-21T13:15:26;15.90;99.90
18597;DHT22;9428;50.950;6.912;2023-04-21T13:18:13;15.90;99.90
18597;DHT22;9428;50.950;6.912;2023-04-21T13:21:00;16.10;99.90
18597;DHT22;9428;50.950;6.912;2023-04-21T13:23:48;15.90;99.90
18597;DHT22;9428;50.950;6.912;2023-04-21T13:26:36;16.00;99.90
18597;DHT22;9428;50.950;6.912;2023-04-21T13:29:23;16.20;99.90
18597;DHT22;9428;50.950;6.912;2023-04-21T13:32:14;16.30;99.90
18597;DHT22;9428;50.950;6.912;2023-04-21T13:35:02;16.50;99.90
18597;DHT22;9428;50.950;6.912;2023-04-21T13:37:53;16.50;99.90
18597;DHT22;9428;50.950;6.912;2023-04-21T13:40:41;16.50;99.90
18597;DHT22;9428;50.950;6.912;2023-04-21T13:43:29;16.50;99.90
18597;DHT22;9428;50.950;6.912;2023-04-21T13:46:17;16.30;99.90
18597;DHT22;9428;50.950;6.912;2023-04-21T13:49:04;15.80;99.90
18597;DHT22;9428;50.950;6.912;2023-04-21T13:51:52;16.20;99.90
18597;DHT22;9428;50.950;6.912;2023-04-21T13:54:39;16.40;99.90
18597;DHT22;9428;50.950;6.912;2023-04-21T13:57:26;16.20;99.90
18597;DHT22;9428;50.950;6.912;2023-04-21T14:00:16;16.20;99.90
18597;DHT22;9428;50.950;6.912;2023-04-21T14:03:03;16.10;99.90
18597;DHT22;9428;50.950;6.912;2023-04-21T14:05:51;16.00;99.90
18597;DHT22;9428;50.950;6.912;2023-04-21T14:08:38;16.20;99.90
18597;DHT22;9428;50.950;6.912;2023-04-21T14:11:26;16.20;99.90
18597;DHT22;9428;50.950;6.912;2023-04-21T14:14:13;16.50;99.90
18597;DHT22;9428;50.950;6.912;2023-04-21T14:17:02;16.30;99.90
18597;DHT22;9428;50.950;6.912;2023-04-21T14:19:49;16.30;99.90
18597;DHT22;9428;50.950;6.912;2023-04-21T14:22:36;16.30;99.90
18597;DHT22;9428;50.950;6.912;2023-04-21T14:25:24;16.30;99.90
18597;DHT22;9428;50.950;6.912;2023-04-21T14:28:11;16.30;99.90
18597;DHT22;9428;50.950;6.912;2023-04-21T14:30:58;16.40;99.90
18597;DHT22;9428;50.950;6.912;2023-04-21T14:33:48;16.50;99.90
18597;DHT22;9428;50.950;6.912;2023-04-21T14:36:35;16.50;99.90
18597;DHT22;9428;50.950;6.912;2023-04-21T14:39:23;16.50;99.90
18597;DHT22;9428;50.950;6.912;2023-04-21T14:42:10;16.40;99.90
18597;DHT22;9428;50.950;6.912;2023-04-21T14:44:57;16.30;99.90
18597;DHT22;9428;50.950;6.912;2023-04-21T14:47:44;16.30;99.90
18597;DHT22;9428;50.950;6.912;2023-04-21T14:50:33;16.60;99.90
18597;DHT22;9428;50.950;6.912;2023-04-21T14:53:20;16.40;99.90
18597;DHT22;9428;50.950;6.912;2023-04-21T14:56:08;16.70;99.90
18597;DHT22;9428;50.950;6.912;2023-04-21T14:58:55;16.40;99.90
18597;DHT22;9428;50.950;6.912;2023-04-21T15:01:42;16.30;99.90
18597;DHT22;9428;50.950;6.912;2023-04-21T15:04:29;16.30;99.90
18597;DHT22;9428;50.950;6.912;2023-04-21T15:07:18;16.60;99.90
18597;DHT22;9428;50.950;6.912;2023-04-21T15:10:06;16.60;99.90
18597;DHT22;9428;50.950;6.912;2023-04-21T15:12:54;16.60;99.90
18597;DHT22;9428;50.950;6.912;2023-04-21T15:15:42;16.80;99.90
18597;DHT22;9428;50.950;6.912;2023-04-21T15:18:29;16.90;99.90
18597;DHT22;9428;50.950;6.912;2023-04-21T15:21:17;16.90;99.90
18597;DHT22;9428;50.950;6.912;2023-04-21T15:24:06;16.80;99.90
18597;DHT22;9428;50.950;6.912;2023-04-21T15:26:55;16.80;99.90
18597;DHT22;9428;50.950;6.912;2023-04-21T15:29:42;16.70;99.90
18597;DHT22;9428;50.950;6.912;2023-04-21T15:32:29;16.70;99.90
18597;DHT22;9428;50.950;6.912;2023-04-21T15:35:17;16.70;99.90
18597;DHT22;9428;50.950;6.912;2023-04-21T15:38:04;16.90;99.90
18597;DHT22;9428;50.950;6.912;2023-04-21T15:40:53;17.00;99.90
18597;DHT22;9428;50.950;6.912;2023-04-21T15:43:40;17.10;99.90
18597;DHT22;9428;50.950;6.912;2023-04-21T15:46:27;17.10;99.90
18597;DHT22;9428;50.950;6.912;2023-04-21T15:49:15;17.00;99.90
18597;DHT22;9428;50.950;6.912;2023-04-21T15:52:02;17.00;99.90
18597;DHT22;9428;50.950;6.912;2023-04-21T15:54:50;17.10;99.90
18597;DHT22;9428;50.950;6.912;2023-04-21T15:57:39;17.00;99.90
18597;DHT22;9428;50.950;6.912;2023-04-21T16:00:26;16.90;99.90
18597;DHT22;9428;50.950;6.912;2023-04-21T16:03:14;16.90;99.90
18597;DHT22;9428;50.950;6.912;2023-04-21T16:06:01;17.00;99.90
18597;DHT22;9428;50.950;6.912;2023-04-21T16:08:48;16.90;99.90
18597;DHT22;9428;50.950;6.912;2023-04-21T16:11:36;16.90;99.90
18597;DHT22;9428;50.950;6.912;2023-04-21T16:14:24;16.90;99.90
18597;DHT22;9428;50.950;6.912;2023-04-21T16:17:12;16.90;99.90
18597;DHT22;9428;50.950;6.912;2023-04-21T16:19:59;16.80;99.90
18597;DHT22;9428;50.950;6.912;2023-04-21T16:22:47;16.80;99.90
18597;DHT22;9428;50.950;6.912;2023-04-21T16:25:36;16.90;99.90
18597;DHT22;9428;50.950;6.912;2023-04-21T16:28:23;16.90;99.90
18597;DHT22;9428;50.950;6.912;2023-04-21T16:31:11;16.80;99.90
18597;DHT22;9428;50.950;6.912;2023-04-21T16:33:59;16.70;99.90
18597;DHT22;9428;50.950;6.912;2023-04-21T16:36:46;16.70;99.90
18597;DHT22;9428;50.950;6.912;2023-04-21T16:39:33;16.70;99.90
18597;DHT22;9428;50.950;6.912;2023-04-21T16:42:21;16.80;99.90
18597;DHT22;9428;50.950;6.912;2023-04-21T16:45:08;16.90;99.90
18597;DHT22;9428;50.950;6.912;2023-04-21T16:47:57;16.80;99.90
18597;DHT22;9428;50.950;6.912;2023-04-21T16:50:44;16.80;99.90
18597;DHT22;9428;50.950;6.912;2023-04-21T16:53:32;16.80;99.90
18597;DHT22;9428;50.950;6.912;2023-04-21T16:56:19;16.70;99.90
18597;DHT22;9428;50.950;6.912;2023-04-21T16:59:07;16.60;99.90
18597;DHT22;9428;50.950;6.912;2023-04-21T17:01:55;16.50;99.90
18597;DHT22;9428;50.950;6.912;2023-04-21T17:04:44;16.60;99.90
18597;DHT22;9428;50.950;6.912;2023-04-21T17:07:32;16.60;99.90
18597;DHT22;9428;50.950;6.912;2023-04-21T17:10:20;16.60;99.90
18597;DHT22;9428;50.950;6.912;2023-04-21T17:13:07;16.70;99.90
18597;DHT22;9428;50.950;6.912;2023-04-21T17:15:54;16.60;99.90
18597;DHT22;9428;50.950;6.912;2023-04-21T17:18:42;16.40;99.90
18597;DHT22;9428;50.950;6.912;2023-04-21T17:21:30;16.20;99.90
18597;DHT22;9428;50.950;6.912;2023-04-21T17:24:18;16.40;99.90
18597;DHT22;9428;50.950;6.912;2023-04-21T17:27:05;16.20;99.90
18597;DHT22;9428;50.950;6.912;2023-04-21T17:29:53;15.80;99.90
18597;DHT22;9428;50.950;6.912;2023-04-21T17:32:40;16.30;99.90
18597;DHT22;9428;50.950;6.912;2023-04-21T17:35:28;16.20;99.90
18597;DHT22;9428;50.950;6.912;2023-04-21T17:38:17;16.30;99.90
18597;DHT22;9428;50.950;6.912;2023-04-21T17:41:04;16.10;99.90
18597;DHT22;9428;50.950;6.912;2023-04-21T17:43:52;16.00;99.90
18597;DHT22;9428;50.950;6.912;2023-04-21T17:46:41;16.00;99.90
18597;DHT22;9428;50.950;6.912;2023-04-21T17:49:29;16.10;99.90
18597;DHT22;9428;50.950;6.912;2023-04-21T17:52:16;16.10;99.90
18597;DHT22;9428;50.950;6.912;2023-04-21T17:55:05;16.00;99.90
18597;DHT22;9428;50.950;6.912;2023-04-21T17:57:52;15.80;99.90
18597;DHT22;9428;50.950;6.912;2023-04-21T18:00:40;15.70;99.90
18597;DHT22;9428;50.950;6.912;2023-04-21T18:03:27;15.60;99.90
18597;DHT22;9428;50.950;6.912;2023-04-21T18:06:14;15.50;99.90